createdAt,value
2019-02-02T00:03:37.267Z,0.66
2019-02-02T00:06:16.413Z,0.58
2019-02-02T00:08:49.346Z,0.52
2019-02-02T00:11:25.003Z,0.52
2019-02-02T00:16:39.133Z,0.59
2019-02-02T00:21:48.245Z,0.55
2019-02-02T00:24:30.433Z,0.63
2019-02-02T00:27:06.178Z,0.67
2019-02-02T00:29:43.550Z,0.69
2019-02-02T00:32:18.386Z,0.69
2019-02-02T00:37:33.108Z,0.88
2019-02-02T00:40:08.319Z,0.96
2019-02-02T00:42:45.680Z,1.04
2019-02-02T00:45:21.843Z,0.86
2019-02-02T00:47:56.260Z,0.81
2019-02-02T00:53:12.254Z,0.95
2019-02-02T00:55:42.875Z,0.97
2019-02-02T00:58:30.253Z,0.90
2019-02-02T01:01:06.353Z,0.82
2019-02-02T01:03:35.399Z,0.97
2019-02-02T01:08:41.801Z,1.31
2019-02-02T01:11:10.871Z,1.32
2019-02-02T01:13:39.947Z,1.12
2019-02-02T01:16:21.298Z,1.10
2019-02-02T01:21:26.683Z,1.15
2019-02-02T01:24:09.467Z,1.15
2019-02-02T01:26:38.507Z,1.16
2019-02-02T01:29:15.778Z,1.08
2019-02-02T01:31:44.817Z,1.00
2019-02-02T01:36:53.795Z,1.38
2019-02-02T01:39:23.835Z,1.18
2019-02-02T01:41:53.310Z,1.35
2019-02-02T01:47:06.623Z,1.30
2019-02-02T01:49:36.608Z,1.45
2019-02-02T01:52:05.650Z,1.52
2019-02-02T01:54:38.311Z,1.27
2019-02-02T01:57:12.703Z,1.46
2019-02-02T01:59:42.651Z,1.64
2019-02-02T02:02:16.462Z,1.71
2019-02-02T02:04:45.523Z,1.74
2019-02-02T02:07:15.244Z,1.66
2019-02-02T02:09:44.343Z,1.37
2019-02-02T02:12:16.995Z,1.42
2019-02-02T02:14:46.035Z,1.54
2019-02-02T02:17:15.068Z,1.33
2019-02-02T02:19:44.435Z,1.23
2019-02-02T02:22:13.479Z,1.23
2019-02-02T02:24:45.491Z,1.15
2019-02-02T02:27:15.642Z,1.24
2019-02-02T02:29:44.715Z,1.44
2019-02-02T02:32:14.752Z,1.54
2019-02-02T02:34:43.824Z,1.51
2019-02-02T02:37:12.879Z,1.42
2019-02-02T02:39:42.407Z,1.36
2019-02-02T02:42:11.496Z,1.33
2019-02-02T02:44:41.460Z,1.45
2019-02-02T02:47:10.499Z,1.65
2019-02-02T02:49:39.573Z,1.80
2019-02-02T02:52:08.922Z,1.39
2019-02-02T02:54:38.036Z,1.39
2019-02-02T02:57:10.820Z,1.34
2019-02-02T02:59:41.432Z,1.40
2019-02-02T03:02:10.516Z,1.60
2019-02-02T03:04:39.573Z,1.85
2019-02-02T03:14:27.471Z,1.84
2019-02-02T03:17:00.400Z,1.63
2019-02-02T03:19:29.901Z,1.60
2019-02-02T03:21:59.914Z,1.46
2019-02-02T03:24:29.870Z,1.64
2019-02-02T03:27:00.898Z,1.55
2019-02-02T03:29:36.302Z,1.48
2019-02-02T03:32:27.504Z,1.53
2019-02-02T03:35:14.955Z,1.43
2019-02-02T03:37:44.433Z,1.24
2019-02-02T03:40:17.269Z,1.13
2019-02-02T03:42:46.332Z,0.98
2019-02-02T03:45:15.919Z,1.11
2019-02-02T03:47:44.989Z,1.03
2019-02-02T03:52:49.724Z,1.26
2019-02-02T03:55:49.676Z,1.35
2019-02-02T03:58:21.102Z,1.48
2019-02-02T04:00:50.179Z,1.24
2019-02-02T04:03:19.251Z,1.33
2019-02-02T04:05:48.308Z,1.22
2019-02-02T04:08:17.355Z,1.09
2019-02-02T04:10:47.829Z,1.19
2019-02-02T04:13:16.900Z,1.25
2019-02-02T04:15:45.963Z,1.29
2019-02-02T04:18:15.015Z,1.32
2019-02-02T04:23:50.576Z,1.34
2019-02-02T04:26:25.147Z,1.44
2019-02-02T04:28:54.229Z,1.57
2019-02-02T04:34:08.646Z,1.46
2019-02-02T04:36:50.391Z,1.59
2019-02-02T04:39:49.310Z,1.58
2019-02-02T04:42:37.428Z,1.54
2019-02-02T04:45:06.495Z,1.48
2019-02-02T04:47:35.565Z,1.57
2019-02-02T04:50:05.295Z,1.50
2019-02-02T04:57:51.599Z,1.96
2019-02-02T05:00:26.436Z,1.82
2019-02-02T05:02:56.999Z,1.66
2019-02-02T05:08:01.802Z,1.77
2019-02-02T05:13:11.110Z,1.75
2019-02-02T05:15:40.650Z,1.64
2019-02-02T05:18:11.622Z,1.74
2019-02-02T05:20:49.798Z,1.74
2019-02-02T05:23:18.855Z,1.86
2019-02-02T05:25:47.948Z,1.88
2019-02-02T05:28:17.538Z,2.02
2019-02-02T05:31:03.975Z,2.13
2019-02-02T05:36:12.885Z,2.42
2019-02-02T05:38:54.222Z,2.49
2019-02-02T05:41:23.687Z,2.33
2019-02-02T05:43:52.746Z,2.34
2019-02-02T05:46:21.801Z,2.42
2019-02-02T05:51:51.301Z,2.54
2019-02-02T05:54:23.810Z,2.51
2019-02-02T05:56:58.226Z,2.40
2019-02-02T05:59:27.267Z,2.30
2019-02-02T06:02:07.512Z,2.33
2019-02-02T06:04:37.612Z,2.27
2019-02-02T06:07:08.564Z,2.18
2019-02-02T06:09:37.679Z,2.23
2019-02-02T06:12:26.273Z,2.27
2019-02-02T06:15:04.061Z,2.29
2019-02-02T06:17:33.118Z,2.39
2019-02-02T06:20:06.917Z,2.27
2019-02-02T06:22:35.950Z,2.24
2019-02-02T06:27:41.534Z,2.28
2019-02-02T06:32:47.275Z,2.31
2019-02-02T06:35:26.783Z,2.40
2019-02-02T06:38:05.734Z,2.22
2019-02-02T06:40:35.197Z,1.87
2019-02-02T06:43:08.431Z,1.97
2019-02-02T06:45:37.480Z,2.12
2019-02-02T06:48:06.516Z,2.26
2019-02-02T06:50:35.568Z,2.34
2019-02-02T06:53:05.308Z,2.28
2019-02-02T06:55:34.416Z,2.26
2019-02-02T07:00:39.788Z,2.48
2019-02-02T07:03:09.233Z,2.40
2019-02-02T07:05:38.293Z,2.32
2019-02-02T07:08:20.236Z,2.37
2019-02-02T07:10:50.156Z,2.19
2019-02-02T07:13:22.002Z,2.24
2019-02-02T07:15:52.026Z,2.32
2019-02-02T07:18:21.050Z,2.35
2019-02-02T07:20:50.170Z,2.41
2019-02-02T07:23:19.233Z,2.15
2019-02-02T07:25:49.398Z,2.17
2019-02-02T07:30:54.417Z,2.35
2019-02-02T07:33:24.454Z,2.40
2019-02-02T07:35:54.097Z,2.32
2019-02-02T07:38:22.588Z,2.29
2019-02-02T07:40:51.645Z,2.28
2019-02-02T07:43:20.689Z,2.16
2019-02-02T07:45:50.213Z,2.29
2019-02-02T07:48:20.220Z,2.51
2019-02-02T07:50:49.282Z,2.47
2019-02-02T07:55:55.078Z,2.71
2019-02-02T07:58:29.007Z,2.60
2019-02-02T08:00:58.091Z,2.65
2019-02-02T08:03:27.148Z,2.47
2019-02-02T08:05:56.602Z,2.66
2019-02-02T08:08:29.449Z,2.69
2019-02-02T08:10:58.513Z,2.37
2019-02-02T08:13:27.879Z,2.10
2019-02-02T08:15:57.824Z,1.86
2019-02-02T08:18:28.508Z,2.03
2019-02-02T08:20:58.331Z,1.98
2019-02-02T08:26:06.085Z,1.75
2019-02-02T08:28:40.367Z,1.83
2019-02-02T08:31:11.193Z,1.85
2019-02-02T08:39:06.570Z,2.40
2019-02-02T08:41:50.911Z,2.28
2019-02-02T08:44:21.996Z,2.11
2019-02-02T08:46:53.025Z,2.40
2019-02-02T08:49:35.971Z,2.65
2019-02-02T08:52:26.201Z,2.90
2019-02-02T08:54:55.876Z,2.76
2019-02-02T08:57:26.945Z,2.39
2019-02-02T08:59:55.835Z,2.52
2019-02-02T09:02:25.919Z,2.82
2019-02-02T09:04:55.026Z,3.19
2019-02-02T09:07:24.007Z,3.32
2019-02-02T09:09:53.492Z,3.33
2019-02-02T09:12:25.790Z,3.51
2019-02-02T09:14:54.874Z,3.34
2019-02-02T09:17:24.511Z,2.91
2019-02-02T09:19:53.578Z,2.77
2019-02-02T09:22:23.074Z,2.79
2019-02-02T09:24:52.191Z,2.76
2019-02-02T09:27:21.207Z,2.98
2019-02-02T09:29:50.810Z,3.12
2019-02-02T09:32:20.918Z,3.15
2019-02-02T09:34:49.974Z,3.29
2019-02-02T09:37:19.008Z,3.57
2019-02-02T09:39:59.064Z,3.23
2019-02-02T09:42:29.109Z,3.09
2019-02-02T09:44:59.189Z,3.41
2019-02-02T09:47:28.220Z,3.68
2019-02-02T09:49:57.782Z,3.88
2019-02-02T09:52:27.839Z,3.51
2019-02-02T09:54:56.905Z,3.20
2019-02-02T09:57:27.975Z,3.23
2019-02-02T09:59:54.984Z,3.35
2019-02-02T10:02:26.995Z,3.73
2019-02-02T10:04:53.835Z,3.94
2019-02-02T10:07:22.876Z,4.08
2019-02-02T10:12:28.127Z,4.21
2019-02-02T10:14:58.797Z,4.14
2019-02-02T10:17:27.862Z,3.99
2019-02-02T10:19:56.931Z,4.02
2019-02-02T10:22:30.122Z,4.00
2019-02-02T10:24:59.192Z,4.11
2019-02-02T10:27:28.571Z,4.30
2019-02-02T10:32:36.558Z,4.05
2019-02-02T10:35:07.282Z,4.07
2019-02-02T10:37:36.374Z,4.09
2019-02-02T10:40:05.418Z,3.85
2019-02-02T10:42:35.407Z,3.73
2019-02-02T10:45:05.742Z,3.92
2019-02-02T10:47:35.268Z,4.25
2019-02-02T10:52:40.025Z,4.27
2019-02-02T10:55:18.687Z,4.13
2019-02-02T10:57:51.538Z,4.35
2019-02-02T11:00:24.046Z,4.81
2019-02-02T11:02:54.116Z,6.11
2019-02-02T11:05:24.211Z,6.30
2019-02-02T11:07:54.822Z,7.57
2019-02-02T11:10:24.708Z,7.32
2019-02-02T11:12:55.151Z,6.66
2019-02-02T11:15:24.174Z,7.26
2019-02-02T11:17:55.013Z,7.28
2019-02-02T11:20:29.359Z,6.71
2019-02-02T11:22:58.554Z,7.11
2019-02-02T11:25:28.694Z,6.78
2019-02-02T11:27:57.759Z,6.20
2019-02-02T11:30:28.037Z,6.12
2019-02-02T11:32:58.601Z,6.15
2019-02-02T11:38:03.489Z,5.50
2019-02-02T11:40:36.735Z,5.49
2019-02-02T11:43:05.815Z,5.50
2019-02-02T11:45:34.898Z,5.63
2019-02-02T11:48:03.964Z,5.83
2019-02-02T11:53:13.032Z,5.92
2019-02-02T11:55:42.127Z,6.00
2019-02-02T11:58:11.139Z,6.03
2019-02-02T12:03:15.890Z,6.31
2019-02-02T12:05:45.537Z,6.68
2019-02-02T12:08:21.062Z,7.23
2019-02-02T12:10:50.362Z,7.44
2019-02-02T12:13:19.363Z,6.96
2019-02-02T12:15:48.498Z,7.01
2019-02-02T12:18:18.621Z,7.18
2019-02-02T12:20:47.678Z,7.42
2019-02-02T12:23:16.715Z,7.03
2019-02-02T12:25:48.601Z,6.85
2019-02-02T12:28:17.755Z,6.96
2019-02-02T12:30:46.871Z,6.88
2019-02-02T12:33:15.874Z,6.89
2019-02-02T12:35:45.848Z,7.11
2019-02-02T12:38:15.679Z,7.27
2019-02-02T12:40:44.776Z,7.53
2019-02-02T12:43:13.892Z,7.75
2019-02-02T12:45:46.735Z,7.52
2019-02-02T12:48:19.431Z,7.44
2019-02-02T12:50:48.472Z,7.38
2019-02-02T12:53:17.482Z,7.16
2019-02-02T12:55:46.704Z,7.35
2019-02-02T12:58:17.146Z,7.07
2019-02-02T13:00:46.290Z,7.09
2019-02-02T13:03:17.300Z,7.02
2019-02-02T13:05:46.335Z,7.23
2019-02-02T13:10:51.751Z,7.60
2019-02-02T13:13:21.676Z,7.49
2019-02-02T13:15:50.722Z,6.98
2019-02-02T13:18:20.932Z,6.78
2019-02-02T13:20:49.987Z,6.84
2019-02-02T13:23:19.018Z,6.57
2019-02-02T13:25:50.056Z,6.97
2019-02-02T13:28:19.274Z,7.43
2019-02-02T13:30:49.727Z,7.32
2019-02-02T13:33:37.027Z,7.62
2019-02-02T13:38:45.856Z,7.97
2019-02-02T13:41:15.021Z,7.97
2019-02-02T13:43:44.550Z,7.87
2019-02-02T13:46:13.633Z,7.69
2019-02-02T13:48:42.867Z,7.57
2019-02-02T13:51:11.910Z,7.15
2019-02-02T13:53:40.931Z,7.25
2019-02-02T13:56:10.596Z,7.50
2019-02-02T13:58:40.572Z,7.95
2019-02-02T14:01:09.631Z,8.17
2019-02-02T14:03:41.065Z,7.45
2019-02-02T14:06:10.114Z,6.94
2019-02-02T14:08:39.175Z,7.24
2019-02-02T14:11:08.223Z,7.11
2019-02-02T14:13:37.262Z,7.58
2019-02-02T14:18:46.530Z,6.89
2019-02-02T14:21:18.808Z,7.57
2019-02-02T14:23:47.893Z,7.69
2019-02-02T14:26:17.601Z,7.20
2019-02-02T14:31:22.856Z,7.37
2019-02-02T14:33:52.335Z,6.94
2019-02-02T14:36:25.112Z,6.78
2019-02-02T14:38:55.313Z,6.69
2019-02-02T14:41:24.516Z,6.56
2019-02-02T14:43:55.728Z,6.49
2019-02-02T14:46:22.598Z,6.58
2019-02-02T14:52:41.887Z,7.15
2019-02-02T14:55:17.554Z,7.06
2019-02-02T14:57:51.920Z,6.83
2019-02-02T15:00:26.240Z,6.72
2019-02-02T15:02:59.464Z,6.60
2019-02-02T15:08:11.466Z,6.68
2019-02-02T15:10:46.557Z,6.63
2019-02-02T15:13:17.791Z,6.42
2019-02-02T15:18:23.960Z,6.43
2019-02-02T15:20:52.990Z,6.28
2019-02-02T15:25:58.642Z,6.17
2019-02-02T15:28:27.695Z,6.24
2019-02-02T15:30:56.759Z,6.04
2019-02-02T15:33:37.555Z,5.90
2019-02-02T15:35:57.876Z,5.70
2019-02-02T15:38:27.160Z,5.66
2019-02-02T15:40:59.235Z,5.67
2019-02-02T15:43:40.380Z,5.61
2019-02-02T15:46:10.894Z,5.35
2019-02-02T15:53:53.695Z,5.09
2019-02-02T15:56:28.226Z,5.01
2019-02-02T15:58:58.328Z,4.68
2019-02-02T16:01:32.007Z,4.48
2019-02-02T16:06:36.974Z,4.18
2019-02-02T16:09:06.064Z,4.07
2019-02-02T16:11:37.655Z,4.01
2019-02-02T16:14:07.058Z,3.86
2019-02-02T16:16:36.119Z,3.88
2019-02-02T16:19:05.913Z,3.86
2019-02-02T16:21:47.656Z,3.72
2019-02-02T16:24:16.786Z,3.62
2019-02-02T16:26:48.586Z,3.62
2019-02-02T16:29:15.009Z,3.59
2019-02-02T16:31:45.032Z,3.58
2019-02-02T16:34:14.118Z,3.64
2019-02-02T16:36:50.192Z,3.64
2019-02-02T16:39:22.804Z,3.63
2019-02-02T16:41:51.866Z,3.76
2019-02-02T16:44:21.494Z,3.84
2019-02-02T16:46:54.368Z,3.84
2019-02-02T16:49:23.447Z,3.93
2019-02-02T16:51:52.825Z,3.95
2019-02-02T16:54:21.863Z,4.01
2019-02-02T16:56:55.910Z,4.10
2019-02-02T16:59:25.057Z,4.13
2019-02-02T17:01:54.233Z,4.17
2019-02-02T17:04:24.406Z,4.24
2019-02-02T17:07:00.881Z,4.31
2019-02-02T17:09:29.949Z,4.36
2019-02-02T17:11:59.034Z,4.41
2019-02-02T17:14:28.170Z,4.47
2019-02-02T17:17:11.792Z,4.47
2019-02-02T17:19:54.866Z,4.78
2019-02-02T17:22:23.619Z,4.89
2019-02-02T17:24:56.403Z,4.81
2019-02-02T17:27:25.469Z,4.85
2019-02-02T17:29:56.205Z,4.93
2019-02-02T17:32:25.952Z,5.01
2019-02-02T17:34:57.041Z,5.03
2019-02-02T17:37:26.546Z,5.02
2019-02-02T17:40:03.260Z,5.08
2019-02-02T17:42:34.337Z,4.94
2019-02-02T17:45:03.635Z,5.03
2019-02-02T17:47:49.034Z,5.18
2019-02-02T17:50:21.042Z,5.18
2019-02-02T17:53:03.125Z,4.86
2019-02-02T17:58:16.093Z,4.46
2019-02-02T18:00:50.142Z,4.27
2019-02-02T18:03:22.115Z,4.10
2019-02-02T18:05:51.327Z,3.93
2019-02-02T18:08:20.376Z,3.78
2019-02-02T18:10:57.335Z,3.71
2019-02-02T18:13:26.378Z,3.61
2019-02-02T18:18:31.732Z,3.46
2019-02-02T18:21:01.263Z,3.37
2019-02-02T18:23:30.454Z,3.31
2019-02-02T18:28:39.437Z,3.36
2019-02-02T18:31:08.681Z,3.33
2019-02-02T18:33:37.730Z,3.43
2019-02-02T18:36:06.775Z,3.19
2019-02-02T18:39:00.309Z,3.12
2019-02-02T18:41:30.389Z,3.09
2019-02-02T18:44:03.613Z,3.22
2019-02-02T18:46:34.076Z,3.30
2019-02-02T18:49:03.103Z,3.41
2019-02-02T18:51:32.310Z,3.36
2019-02-02T18:54:03.848Z,3.47
2019-02-02T18:59:08.598Z,3.78
2019-02-02T19:01:38.292Z,3.80
2019-02-02T19:04:08.502Z,3.82
2019-02-02T19:06:38.524Z,3.79
2019-02-02T19:09:08.546Z,3.68
2019-02-02T19:11:37.620Z,3.67
2019-02-02T19:14:16.050Z,3.76
2019-02-02T19:16:45.090Z,3.88
2019-02-02T19:19:15.084Z,3.95
2019-02-02T19:21:44.139Z,3.78
2019-02-02T19:24:13.373Z,3.78
2019-02-02T19:26:42.854Z,3.73
2019-02-02T19:29:16.386Z,3.60
2019-02-02T19:31:45.742Z,3.70
2019-02-02T19:34:18.404Z,3.48
2019-02-02T19:36:45.782Z,3.59
2019-02-02T19:39:18.559Z,3.66
2019-02-02T19:41:47.643Z,3.48
2019-02-02T19:44:17.823Z,3.54
2019-02-02T19:46:47.572Z,3.25
2019-02-02T19:49:16.684Z,3.29
2019-02-02T19:51:46.023Z,3.43
2019-02-02T19:54:20.358Z,3.35
2019-02-02T19:56:49.408Z,3.21
2019-02-02T19:59:29.283Z,3.16
2019-02-02T20:01:58.886Z,3.03
2019-02-02T20:04:27.921Z,3.04
2019-02-02T20:07:01.695Z,3.07
2019-02-02T20:12:08.945Z,3.26
2019-02-02T20:14:36.044Z,3.34
2019-02-02T20:17:15.769Z,3.18
2019-02-02T20:19:45.252Z,3.48
2019-02-02T20:22:14.839Z,3.33
2019-02-02T20:24:43.881Z,3.29
2019-02-02T20:27:13.835Z,3.10
2019-02-02T20:29:42.891Z,3.33
2019-02-02T20:32:13.451Z,3.43
2019-02-02T20:34:42.539Z,3.47
2019-02-02T20:37:12.030Z,3.53
2019-02-02T20:39:41.756Z,3.70
2019-02-02T20:42:10.789Z,3.74
2019-02-02T20:44:39.912Z,3.52
2019-02-02T20:47:08.961Z,3.50
2019-02-02T20:49:38.084Z,3.55
2019-02-02T20:52:08.731Z,3.29
2019-02-02T20:54:50.419Z,3.30
2019-02-02T20:59:54.674Z,3.63
2019-02-02T21:05:01.214Z,3.84
2019-02-02T21:07:32.336Z,3.61
2019-02-02T21:10:01.604Z,3.58
2019-02-02T21:12:30.656Z,3.60
2019-02-02T21:15:11.731Z,3.58
2019-02-02T21:17:46.626Z,3.69
2019-02-02T21:20:26.042Z,3.66
2019-02-02T21:22:55.114Z,3.50
2019-02-02T21:25:25.117Z,3.42
2019-02-02T21:27:58.119Z,3.09
2019-02-02T21:30:39.589Z,3.14
2019-02-02T21:33:09.941Z,3.24
2019-02-02T21:35:40.851Z,3.48
2019-02-02T21:38:17.796Z,3.42
2019-02-02T21:40:47.364Z,3.32
2019-02-02T21:45:57.941Z,3.52
2019-02-02T21:48:28.154Z,3.33
2019-02-02T21:50:58.524Z,3.39
2019-02-02T21:53:27.768Z,3.37
2019-02-02T21:55:57.549Z,3.34
2019-02-02T21:58:26.794Z,3.35
2019-02-02T22:00:56.642Z,3.42
2019-02-02T22:03:28.999Z,3.54
2019-02-02T22:08:33.753Z,3.54
2019-02-02T22:11:07.814Z,3.27
2019-02-02T22:18:51.771Z,3.31
2019-02-02T22:21:28.713Z,3.45
2019-02-02T22:24:02.277Z,3.40
2019-02-02T22:26:39.408Z,3.43
2019-02-02T22:29:11.100Z,3.36
2019-02-02T22:34:22.083Z,3.48
2019-02-02T22:39:26.805Z,3.22
2019-02-02T22:42:05.521Z,3.34
2019-02-02T22:47:28.440Z,3.40
2019-02-02T22:50:01.269Z,3.13
2019-02-02T22:52:31.177Z,3.16
2019-02-02T22:57:39.098Z,3.14
2019-02-02T23:00:29.865Z,3.22
2019-02-02T23:10:56.019Z,3.08
2019-02-02T23:16:24.203Z,2.93
2019-02-02T23:18:53.747Z,2.51
2019-02-02T23:21:37.154Z,2.61
2019-02-02T23:26:45.790Z,2.50
2019-02-02T23:29:24.163Z,2.36
2019-02-02T23:32:04.713Z,2.78
2019-02-02T23:34:46.881Z,2.81
2019-02-02T23:39:54.607Z,2.58
2019-02-02T23:42:30.176Z,2.73
2019-02-02T23:45:00.851Z,2.52
2019-02-02T23:47:46.531Z,2.47
2019-02-02T23:50:18.387Z,2.62
2019-02-02T23:52:48.961Z,2.60
2019-02-02T23:57:58.017Z,2.23
